createdAt,value
2019-05-21T00:01:34.825Z,9.98
2019-05-21T00:04:03.238Z,9.95
2019-05-21T00:06:31.743Z,8.88
2019-05-21T00:09:01.040Z,9.28
2019-05-21T00:11:29.522Z,9.43
2019-05-21T00:13:58.862Z,9.03
2019-05-21T00:16:27.333Z,9.43
2019-05-21T00:18:56.889Z,8.95
2019-05-21T00:21:25.304Z,9.05
2019-05-21T00:23:57.636Z,9.88
2019-05-21T00:29:30.318Z,7.97
2019-05-21T00:32:35.048Z,8.53
2019-05-21T00:35:48.955Z,8.10
2019-05-21T00:38:54.118Z,7.72
2019-05-21T00:42:00.667Z,8.23
2019-05-21T00:44:38.354Z,7.95
2019-05-21T00:47:08.329Z,8.00
2019-05-21T00:49:40.942Z,8.20
2019-05-21T00:52:11.896Z,8.13
2019-05-21T00:54:40.343Z,10.33
2019-05-21T00:57:09.856Z,10.82
2019-05-21T00:59:38.305Z,11.63
2019-05-21T01:02:06.757Z,11.33
2019-05-21T01:04:35.174Z,10.73
2019-05-21T01:07:03.595Z,10.85
2019-05-21T01:09:33.033Z,12.37
2019-05-21T01:12:02.608Z,11.95
2019-05-21T01:14:31.130Z,12.70
2019-05-21T01:16:59.505Z,12.25
2019-05-21T01:19:27.982Z,13.03
2019-05-21T01:21:56.388Z,12.82
2019-05-21T01:24:24.869Z,13.30
2019-05-21T01:26:57.037Z,14.18
2019-05-21T01:29:25.453Z,15.03
2019-05-21T01:31:53.872Z,15.90
2019-05-21T01:34:23.330Z,15.72
2019-05-21T01:36:52.793Z,16.07
2019-05-21T01:39:21.238Z,16.75
2019-05-21T01:41:49.651Z,20.23
2019-05-21T01:44:18.082Z,17.70
2019-05-21T01:46:46.521Z,19.40
2019-05-21T01:49:14.954Z,18.92
2019-05-21T01:51:43.378Z,19.17
2019-05-21T01:54:11.793Z,20.85
2019-05-21T01:56:40.202Z,20.30
2019-05-21T01:59:08.634Z,20.45
2019-05-21T02:01:37.045Z,21.48
2019-05-21T02:04:05.484Z,21.12
2019-05-21T02:06:33.988Z,23.30
2019-05-21T02:09:02.424Z,22.67
2019-05-21T02:11:30.837Z,21.90
2019-05-21T02:13:59.253Z,21.57
2019-05-21T02:16:27.673Z,21.77
2019-05-21T02:18:56.100Z,22.80
2019-05-21T02:21:24.528Z,22.93
2019-05-21T02:23:55.626Z,24.05
2019-05-21T02:26:24.057Z,23.47
2019-05-21T02:28:52.571Z,23.80
2019-05-21T02:31:21.994Z,23.67
2019-05-21T02:33:50.409Z,24.47
2019-05-21T02:36:19.880Z,24.65
2019-05-21T02:38:51.029Z,25.23
2019-05-21T02:41:19.444Z,23.77
2019-05-21T02:43:50.299Z,26.00
2019-05-21T02:46:22.529Z,25.52
2019-05-21T02:48:50.946Z,25.20
2019-05-21T02:51:23.435Z,26.12
2019-05-21T02:53:56.907Z,25.00
2019-05-21T02:56:25.329Z,25.37
2019-05-21T02:58:53.765Z,26.48
2019-05-21T03:01:24.857Z,24.80
2019-05-21T03:03:54.332Z,24.80
2019-05-21T03:06:23.761Z,26.40
2019-05-21T03:08:53.194Z,24.77
2019-05-21T03:11:21.778Z,25.55
2019-05-21T03:13:50.387Z,25.37
2019-05-21T03:16:18.793Z,24.15
2019-05-21T03:18:49.617Z,24.72
2019-05-21T03:21:20.569Z,26.65
2019-05-21T03:23:50.149Z,25.85
2019-05-21T03:26:19.571Z,25.82
2019-05-21T03:28:48.010Z,25.00
2019-05-21T03:31:16.451Z,25.35
2019-05-21T03:33:45.942Z,25.72
2019-05-21T03:36:31.758Z,27.10
2019-05-21T03:38:44.546Z,25.15
2019-05-21T03:41:12.959Z,26.05
2019-05-21T03:43:44.829Z,24.85
2019-05-21T03:46:14.242Z,26.42
2019-05-21T03:48:42.773Z,25.05
2019-05-21T03:51:11.491Z,23.20
2019-05-21T03:53:39.908Z,25.70
2019-05-21T03:56:10.712Z,26.13
2019-05-21T03:58:40.161Z,24.37
2019-05-21T04:01:08.574Z,24.43
2019-05-21T04:03:40.543Z,24.32
2019-05-21T04:06:11.434Z,22.73
2019-05-21T04:08:39.901Z,24.30
2019-05-21T04:11:08.321Z,25.15
2019-05-21T04:13:39.264Z,24.23
2019-05-21T04:16:16.358Z,25.12
2019-05-21T04:18:46.429Z,24.50
2019-05-21T04:21:14.836Z,26.75
2019-05-21T04:23:43.262Z,28.20
2019-05-21T04:26:11.731Z,27.22
2019-05-21T04:28:40.170Z,30.08
2019-05-21T04:31:08.676Z,30.15
2019-05-21T04:33:37.081Z,30.32
2019-05-21T04:36:09.718Z,28.92
2019-05-21T04:38:38.215Z,30.72
2019-05-21T04:41:06.647Z,29.25
2019-05-21T04:43:37.676Z,29.87
2019-05-21T04:46:06.220Z,29.27
2019-05-21T04:48:34.635Z,31.17
2019-05-21T04:51:03.198Z,29.23
2019-05-21T04:53:31.642Z,29.98
2019-05-21T04:56:02.355Z,29.52
2019-05-21T04:58:30.780Z,29.37
2019-05-21T05:00:59.194Z,31.55
2019-05-21T05:03:34.842Z,31.25
2019-05-21T05:06:07.231Z,30.32
2019-05-21T05:11:03.286Z,31.95
2019-05-21T05:13:33.108Z,32.48
2019-05-21T05:16:06.320Z,31.80
2019-05-21T05:18:38.551Z,34.35
2019-05-21T05:23:35.705Z,33.02
2019-05-21T05:26:04.208Z,30.82
2019-05-21T05:28:33.688Z,33.67
2019-05-21T05:31:03.165Z,34.80
2019-05-21T05:33:31.569Z,31.42
2019-05-21T05:36:01.077Z,32.55
2019-05-21T05:38:31.937Z,33.15
2019-05-21T05:40:59.640Z,33.88
2019-05-21T05:43:30.510Z,32.60
2019-05-21T05:46:00.211Z,31.27
2019-05-21T05:48:30.011Z,31.45
2019-05-21T05:51:06.661Z,34.03
2019-05-21T05:53:36.721Z,32.42
2019-05-21T05:56:06.281Z,32.70
2019-05-21T05:58:54.281Z,33.00
2019-05-21T06:01:39.439Z,33.53
2019-05-21T06:04:46.504Z,33.40
2019-05-21T06:07:10.989Z,34.05
2019-05-21T06:09:42.084Z,36.30
2019-05-21T06:12:12.119Z,35.43
2019-05-21T06:14:43.244Z,34.10
2019-05-21T06:17:11.717Z,35.20
2019-05-21T06:19:40.311Z,34.78
2019-05-21T06:22:08.739Z,35.30
2019-05-21T06:24:37.158Z,35.70
2019-05-21T06:27:05.669Z,32.83
2019-05-21T06:29:34.084Z,33.10
2019-05-21T06:32:03.946Z,33.15
2019-05-21T06:34:36.576Z,33.03
2019-05-21T06:37:13.011Z,32.03
2019-05-21T06:39:41.408Z,32.50
2019-05-21T06:42:09.841Z,32.00
2019-05-21T06:44:41.116Z,33.47
2019-05-21T06:47:09.538Z,33.70
2019-05-21T06:49:37.967Z,32.80
2019-05-21T06:52:10.327Z,32.20
2019-05-21T06:54:38.819Z,31.63
2019-05-21T06:57:08.320Z,32.63
2019-05-21T06:59:44.349Z,32.13
2019-05-21T07:02:16.576Z,31.95
2019-05-21T07:07:13.595Z,34.00
2019-05-21T07:09:42.007Z,32.63
2019-05-21T07:12:10.427Z,31.15
2019-05-21T07:14:38.878Z,33.37
2019-05-21T07:17:07.310Z,31.60
2019-05-21T07:19:37.355Z,30.10
2019-05-21T07:22:12.743Z,30.60
2019-05-21T07:24:36.055Z,31.87
2019-05-21T07:27:09.567Z,32.58
2019-05-21T07:29:39.058Z,29.77
2019-05-21T07:32:07.480Z,31.20
2019-05-21T07:34:35.939Z,33.37
2019-05-21T07:37:04.391Z,32.35
2019-05-21T07:39:32.838Z,31.97
2019-05-21T07:42:01.240Z,30.00
2019-05-21T07:44:30.583Z,33.87
2019-05-21T07:46:58.984Z,32.42
2019-05-21T07:49:29.883Z,32.97
2019-05-21T07:51:58.315Z,31.80
2019-05-21T07:54:28.149Z,33.53
2019-05-21T07:56:56.752Z,33.80
2019-05-21T07:59:25.215Z,32.70
2019-05-21T08:01:55.966Z,31.73
2019-05-21T08:04:24.410Z,29.98
2019-05-21T08:06:52.817Z,30.65
2019-05-21T08:09:24.044Z,28.80
2019-05-21T08:11:52.467Z,28.20
2019-05-21T08:14:25.215Z,29.38
2019-05-21T08:16:53.896Z,27.70
2019-05-21T14:19:08.474Z,35.98
2019-05-21T14:21:36.879Z,35.78
2019-05-21T14:24:07.623Z,37.17
2019-05-21T14:26:36.015Z,36.35
2019-05-21T14:29:04.675Z,37.40
2019-05-21T14:31:33.174Z,35.70
2019-05-21T14:34:01.618Z,35.43
2019-05-21T14:36:32.426Z,36.30
2019-05-21T14:39:00.876Z,34.98
2019-05-21T14:41:29.273Z,35.33
2019-05-21T14:43:57.687Z,36.25
2019-05-21T14:46:28.651Z,37.08
2019-05-21T14:48:57.075Z,35.55
2019-05-21T14:51:25.593Z,35.65
2019-05-21T14:53:55.640Z,35.33
2019-05-21T14:56:24.068Z,35.70
2019-05-21T14:58:54.894Z,35.80
2019-05-21T15:01:25.980Z,37.42
2019-05-21T15:03:54.574Z,37.42
2019-05-21T15:06:23.365Z,37.63
2019-05-21T15:08:51.775Z,37.30
2019-05-21T15:11:20.198Z,38.75
2019-05-21T15:13:48.608Z,37.80
2019-05-21T15:16:20.673Z,37.08
2019-05-21T15:18:49.108Z,38.85
2019-05-21T15:21:37.370Z,33.38
2019-05-21T15:24:06.107Z,33.30
2019-05-21T15:26:38.886Z,33.10
2019-05-21T15:29:11.435Z,35.35
2019-05-21T15:31:39.917Z,36.38
2019-05-21T15:34:08.325Z,36.80
2019-05-21T15:36:40.369Z,36.05
2019-05-21T15:39:09.239Z,36.60
2019-05-21T15:41:37.661Z,36.75
2019-05-21T15:44:06.189Z,36.70
2019-05-21T15:46:47.925Z,36.88
2019-05-21T15:49:06.313Z,37.80
2019-05-21T15:51:34.743Z,37.78
2019-05-21T15:54:03.352Z,36.42
2019-05-21T15:56:31.782Z,37.63
2019-05-21T15:59:00.197Z,37.08
2019-05-21T16:01:29.683Z,38.28
2019-05-21T16:03:58.121Z,37.00
2019-05-21T16:06:27.623Z,36.28
2019-05-21T16:08:56.071Z,35.52
2019-05-21T16:11:28.737Z,35.48
2019-05-21T16:13:55.728Z,33.67
2019-05-21T16:16:26.901Z,34.85
2019-05-21T16:18:55.332Z,35.20
2019-05-21T16:21:23.775Z,34.60
2019-05-21T16:23:52.188Z,34.60
2019-05-21T16:26:24.513Z,38.00
2019-05-21T16:31:24.383Z,34.38
2019-05-21T16:33:52.846Z,36.48
2019-05-21T16:36:21.276Z,38.28
2019-05-21T16:38:52.236Z,38.95
2019-05-21T16:41:20.647Z,38.70
2019-05-21T16:43:51.748Z,41.83
2019-05-21T16:46:20.222Z,38.67
2019-05-21T16:48:49.045Z,39.00
2019-05-21T16:51:17.636Z,41.13
2019-05-21T16:53:46.161Z,39.08
2019-05-21T16:56:14.594Z,35.60
2019-05-21T16:58:43.303Z,33.08
2019-05-21T17:01:13.585Z,36.83
2019-05-21T17:03:42.007Z,31.65
2019-05-21T17:06:12.939Z,30.32
2019-05-21T17:08:42.463Z,30.68
2019-05-21T17:11:12.185Z,26.05
2019-05-21T17:13:40.592Z,24.57
2019-05-21T17:16:09.397Z,22.60
2019-05-21T17:18:37.805Z,21.60
2019-05-21T17:21:07.402Z,23.10
2019-05-21T17:23:35.930Z,22.32
2019-05-21T17:26:04.352Z,25.50
2019-05-21T17:28:32.756Z,22.93
2019-05-21T17:31:04.952Z,22.37
2019-05-21T17:33:33.437Z,21.37
2019-05-21T17:36:01.890Z,20.45
2019-05-21T17:38:35.546Z,20.15
2019-05-21T17:41:05.200Z,20.43
2019-05-21T17:43:33.628Z,19.60
2019-05-21T17:46:02.041Z,20.80
2019-05-21T17:48:34.641Z,19.37
2019-05-21T17:51:05.213Z,19.48
2019-05-21T17:53:36.363Z,19.23
2019-05-21T17:56:06.150Z,20.20
2019-05-21T17:58:42.742Z,21.23
2019-05-21T18:01:14.788Z,20.25
2019-05-21T18:03:45.603Z,19.20
2019-05-21T18:06:14.620Z,19.42
2019-05-21T18:08:43.201Z,20.43
2019-05-21T18:11:12.319Z,19.87
2019-05-21T18:13:42.129Z,20.23
2019-05-21T18:16:14.093Z,20.48
2019-05-21T18:18:45.057Z,19.77
2019-05-21T18:21:20.618Z,20.23
2019-05-21T18:23:50.282Z,21.00
2019-05-21T18:26:19.796Z,21.25
2019-05-21T18:28:51.710Z,18.82
2019-05-21T18:31:20.482Z,18.65
2019-05-21T18:33:49.969Z,17.50
2019-05-21T18:36:18.425Z,17.85
2019-05-21T18:38:46.874Z,18.30
2019-05-21T18:41:15.366Z,16.73
2019-05-21T18:43:43.804Z,16.57
2019-05-21T18:46:18.639Z,16.25
2019-05-21T18:48:50.891Z,17.20
2019-05-21T18:51:19.381Z,17.17
2019-05-21T18:53:47.779Z,15.90
2019-05-21T18:56:18.468Z,16.00
2019-05-21T18:58:46.990Z,16.20
2019-05-21T19:01:16.019Z,15.45
2019-05-21T19:03:44.427Z,16.55
2019-05-21T19:06:14.854Z,16.15
2019-05-21T19:08:47.655Z,14.07
2019-05-21T19:11:19.560Z,16.15
2019-05-21T19:13:49.229Z,16.40
2019-05-21T19:16:21.513Z,17.95
2019-05-21T19:18:50.020Z,15.55
2019-05-21T19:21:18.445Z,16.50
2019-05-21T19:23:46.860Z,16.85
2019-05-21T19:26:18.463Z,16.95
2019-05-21T19:28:48.497Z,15.18
2019-05-21T19:31:26.612Z,17.62
2019-05-21T19:33:54.275Z,15.70
2019-05-21T19:36:22.275Z,13.53
2019-05-21T19:38:50.753Z,13.20
2019-05-21T19:41:19.376Z,14.38
2019-05-21T19:43:47.805Z,12.03
2019-05-21T19:46:17.758Z,12.80
2019-05-21T19:48:46.169Z,14.33
2019-05-21T19:51:14.842Z,12.47
2019-05-21T19:53:43.270Z,12.05
2019-05-21T19:56:13.801Z,11.73
2019-05-21T19:58:46.503Z,11.63
2019-05-21T20:01:14.927Z,12.07
2019-05-21T20:03:44.321Z,12.25
2019-05-21T20:06:19.618Z,11.88
2019-05-21T20:08:49.351Z,13.13
2019-05-21T20:11:18.049Z,11.90
2019-05-21T20:13:46.752Z,13.40
2019-05-21T20:16:18.971Z,12.00
2019-05-21T20:18:48.351Z,11.18
2019-05-21T20:21:18.172Z,11.04
2019-05-21T20:23:47.493Z,12.10
2019-05-21T20:26:21.935Z,12.20
2019-05-21T20:28:50.518Z,11.48
2019-05-21T20:31:19.343Z,10.00
2019-05-21T20:33:49.553Z,9.08
2019-05-21T20:36:18.243Z,9.58
2019-05-21T20:38:46.746Z,9.15
2019-05-21T20:41:18.004Z,7.78
2019-05-21T20:43:58.608Z,9.93
2019-05-21T20:46:19.730Z,9.18
2019-05-21T20:48:49.076Z,9.65
2019-05-21T20:51:20.133Z,9.30
2019-05-21T20:53:49.978Z,10.25
2019-05-21T20:56:21.325Z,10.28
2019-05-21T20:58:53.580Z,11.43
2019-05-21T21:01:22.101Z,11.00
2019-05-21T21:03:50.911Z,10.70
2019-05-21T21:06:34.866Z,11.20
2019-05-21T21:08:55.441Z,10.23
2019-05-21T21:11:29.704Z,12.17
2019-05-21T21:14:17.086Z,12.03
2019-05-21T21:16:42.938Z,13.10
2019-05-21T21:19:13.414Z,13.30
2019-05-21T21:21:43.664Z,13.53
2019-05-21T21:24:14.555Z,11.78
2019-05-21T21:26:46.064Z,11.73
2019-05-21T21:29:18.196Z,12.23
2019-05-21T21:34:22.398Z,10.20
2019-05-21T21:36:53.306Z,10.98
2019-05-21T21:39:27.184Z,10.85
2019-05-21T21:42:03.545Z,9.73
2019-05-21T21:44:34.745Z,10.68
2019-05-21T21:47:03.314Z,9.50
2019-05-21T21:49:33.485Z,9.50
2019-05-21T21:52:01.940Z,9.95
2019-05-21T21:54:30.413Z,10.23
2019-05-21T21:56:59.102Z,10.05
2019-05-21T21:59:27.519Z,10.70
2019-05-21T22:02:02.889Z,10.50
2019-05-21T22:04:34.199Z,8.95
2019-05-21T22:07:03.481Z,9.90
2019-05-21T22:09:33.668Z,10.03
2019-05-21T22:12:04.174Z,9.75
2019-05-21T22:14:49.219Z,11.03
2019-05-21T22:17:06.129Z,10.13
2019-05-21T22:19:35.284Z,11.10
2019-05-21T22:22:04.903Z,11.35
2019-05-21T22:24:33.490Z,10.13
2019-05-21T22:27:02.095Z,12.13
2019-05-21T22:29:33.825Z,10.98
2019-05-21T22:32:02.441Z,11.17
2019-05-21T22:34:31.242Z,10.93
2019-05-21T22:36:59.835Z,11.48
2019-05-21T22:39:29.590Z,11.65
2019-05-21T22:41:58.216Z,12.05
2019-05-21T22:44:26.902Z,11.30
2019-05-21T22:46:55.405Z,12.60
2019-05-21T22:49:33.602Z,12.53
2019-05-21T22:51:58.509Z,12.88
2019-05-21T22:54:27.605Z,13.10
2019-05-21T22:56:56.017Z,13.22
2019-05-21T22:59:24.438Z,14.83
2019-05-21T23:01:54.591Z,13.72
2019-05-21T23:04:24.352Z,12.80
2019-05-21T23:06:53.044Z,12.35
2019-05-21T23:09:21.980Z,13.88
2019-05-21T23:11:50.509Z,12.80
2019-05-21T23:14:19.085Z,14.05
2019-05-21T23:16:47.495Z,13.95
2019-05-21T23:19:17.049Z,13.78
2019-05-21T23:21:47.495Z,13.45
2019-05-21T23:24:17.945Z,14.63
2019-05-21T23:26:46.929Z,14.20
2019-05-21T23:29:19.281Z,15.50
2019-05-21T23:31:47.782Z,16.27
2019-05-21T23:34:16.657Z,16.12
2019-05-21T23:36:47.491Z,16.15
2019-05-21T23:39:17.551Z,15.85
2019-05-21T23:41:45.971Z,16.93
2019-05-21T23:44:17.519Z,16.15
2019-05-21T23:46:45.939Z,16.20
2019-05-21T23:49:14.512Z,16.93
2019-05-21T23:51:43.233Z,16.60
2019-05-21T23:54:12.012Z,15.90
2019-05-21T23:56:40.640Z,17.00
2019-05-21T23:59:09.056Z,15.60
